CheckWX is a tool to help pilots better visualize weather data.  It is not intended as a substitute for an official pre-flight weather briefing.

21:01:24 UTC

KEEN METAR
Dillant-Hopkins Airport
Keene, New Hampshire, USA
Current

5 mins ago

KEEN 182056Z AUTO 36009KT 9SM -SN BKN050 M02/M06 A2988 RMK AO2 SLP142 P0000 60000 T10171056 53019 FZRANO $
Observed
Feb-18 @ 20:56 UTC
Wind
  • 360° at 9 KTS
Visibility
9 SM
Flight Rules
VFR
Conditions
Light Snow
Cloud Levels
  • Broken at 5,000' AGL
Temperature
-2°C / 28°F
Dewpoint
-6°C / 21°F
Humidity
74%
Altimeter
29.88" Hg
Pressure
1014.2 hPa
Current Rain
0.01"
Previous

1 hour ago

KEEN 181956Z AUTO 32006KT 9SM -SN FEW041 OVC048 M02/M05 A2985 RMK AO2 SLP129 P0000 T10171050 FZRANO $
Observed
Feb-18 @ 19:56 UTC
Wind
  • 320° at 6 KTS
Visibility
9 SM
Flight Rules
VFR
Conditions
Light Snow
Cloud Levels
  • Few at 4,100' AGL
  • Overcast at 4,800' AGL
Temperature
-2°C / 28°F
Dewpoint
-5°C / 23°F
Humidity
80%
Altimeter
29.85" Hg
Pressure
1012.9 hPa
Current Rain
0.01"
Previous

2 hours ago

KEEN 181926Z AUTO 34007KT 4SM -SN FEW011 OVC042 M02/M05 A2984 RMK AO2 P0000 FZRANO $
Observed
Feb-18 @ 19:26 UTC
Wind
  • 340° at 7 KTS
Visibility
4 SM
Flight Rules
MVFR
Conditions
Light Snow
Cloud Levels
  • Few at 1,100' AGL
  • Overcast at 4,200' AGL
Temperature
-2°C / 28°F
Dewpoint
-5°C / 23°F
Humidity
80%
Altimeter
29.84" Hg
Pressure
1010.52 hPa
Current Rain
0.01"